sensor_id;sensor_type;location;lat;lon;timestamp;pressure;altitude;pressure_sealevel;temperature;humidity
17781;BME280;8498;52.516;13.790;2023-03-20T00:04:04;101038.66;;;11.55;96.56
17781;BME280;8498;52.516;13.790;2023-03-20T00:09:27;101042.09;;;11.57;96.60
17781;BME280;8498;52.516;13.790;2023-03-20T00:14:50;101031.78;;;11.52;96.28
17781;BME280;8498;52.516;13.790;2023-03-20T00:20:14;101036.53;;;11.47;96.73
17781;BME280;8498;52.516;13.790;2023-03-20T00:25:37;101029.69;;;11.43;97.03
17781;BME280;8498;52.516;13.790;2023-03-20T00:31:01;101042.13;;;11.43;97.07
17781;BME280;8498;52.516;13.790;2023-03-20T00:36:23;101038.25;;;11.48;97.07
17781;BME280;8498;52.516;13.790;2023-03-20T00:41:50;101035.25;;;11.40;97.26
17781;BME280;8498;52.516;13.790;2023-03-20T00:47:17;101027.88;;;11.31;97.30
17781;BME280;8498;52.516;13.790;2023-03-20T00:52:40;101030.91;;;11.25;97.55
17781;BME280;8498;52.516;13.790;2023-03-20T00:58:02;101032.53;;;11.27;98.12
17781;BME280;8498;52.516;13.790;2023-03-20T01:03:26;101036.41;;;11.22;97.76
17781;BME280;8498;52.516;13.790;2023-03-20T01:08:51;101024.28;;;11.18;98.25
17781;BME280;8498;52.516;13.790;2023-03-20T01:14:14;101028.31;;;11.11;97.90
17781;BME280;8498;52.516;13.790;2023-03-20T01:19:37;101015.66;;;11.14;98.45
17781;BME280;8498;52.516;13.790;2023-03-20T01:24:59;101015.75;;;11.13;98.70
17781;BME280;8498;52.516;13.790;2023-03-20T01:30:26;101020.44;;;11.09;98.35
17781;BME280;8498;52.516;13.790;2023-03-20T01:35:50;101018.63;;;11.10;98.26
17781;BME280;8498;52.516;13.790;2023-03-20T01:41:15;101031.00;;;10.96;98.55
17781;BME280;8498;52.516;13.790;2023-03-20T01:46:38;101029.47;;;10.92;98.46
17781;BME280;8498;52.516;13.790;2023-03-20T01:52:11;101020.56;;;10.93;98.28
17781;BME280;8498;52.516;13.790;2023-03-20T01:57:33;101031.50;;;10.75;98.00
17781;BME280;8498;52.516;13.790;2023-03-20T02:02:56;101023.84;;;10.56;97.94
17781;BME280;8498;52.516;13.790;2023-03-20T02:08:55;101024.50;;;10.31;97.93
17781;BME280;8498;52.516;13.790;2023-03-20T02:14:21;101025.34;;;10.17;98.34
17781;BME280;8498;52.516;13.790;2023-03-20T02:20:11;101024.66;;;10.14;98.64
17781;BME280;8498;52.516;13.790;2023-03-20T02:26:09;101023.00;;;9.97;98.37
17781;BME280;8498;52.516;13.790;2023-03-20T03:00:02;101029.09;;;9.69;100.00
17781;BME280;8498;52.516;13.790;2023-03-20T03:05:37;101025.41;;;9.72;100.00
17781;BME280;8498;52.516;13.790;2023-03-20T03:11:06;101019.00;;;9.76;100.00
17781;BME280;8498;52.516;13.790;2023-03-20T03:16:32;101035.50;;;9.81;100.00
17781;BME280;8498;52.516;13.790;2023-03-20T03:21:56;101035.66;;;9.78;100.00
17781;BME280;8498;52.516;13.790;2023-03-20T03:27:31;101035.31;;;9.98;100.00
17781;BME280;8498;52.516;13.790;2023-03-20T03:38:42;101030.44;;;10.06;100.00
17781;BME280;8498;52.516;13.790;2023-03-20T03:49:41;101041.47;;;10.43;100.00
17781;BME280;8498;52.516;13.790;2023-03-20T03:55:09;101038.84;;;10.57;100.00
17781;BME280;8498;52.516;13.790;2023-03-20T04:00:54;101044.88;;;10.59;100.00
17781;BME280;8498;52.516;13.790;2023-03-20T04:06:19;101047.53;;;10.59;100.00
17781;BME280;8498;52.516;13.790;2023-03-20T04:11:48;101049.81;;;10.51;100.00
17781;BME280;8498;52.516;13.790;2023-03-20T04:17:11;101051.53;;;10.52;100.00
17781;BME280;8498;52.516;13.790;2023-03-20T04:22:34;101048.78;;;10.53;100.00
17781;BME280;8498;52.516;13.790;2023-03-20T04:28:07;101049.25;;;10.60;100.00
17781;BME280;8498;52.516;13.790;2023-03-20T04:33:35;101051.44;;;10.68;100.00
17781;BME280;8498;52.516;13.790;2023-03-20T04:39:19;101055.50;;;10.59;100.00
17781;BME280;8498;52.516;13.790;2023-03-20T04:44:42;101063.19;;;10.49;100.00
17781;BME280;8498;52.516;13.790;2023-03-20T04:50:05;101063.50;;;10.45;100.00
17781;BME280;8498;52.516;13.790;2023-03-20T04:55:28;101077.63;;;10.45;100.00
17781;BME280;8498;52.516;13.790;2023-03-20T05:00:51;101076.75;;;10.59;100.00
17781;BME280;8498;52.516;13.790;2023-03-20T05:06:13;101070.78;;;10.70;100.00
17781;BME280;8498;52.516;13.790;2023-03-20T05:11:38;101074.59;;;10.65;100.00
17781;BME280;8498;52.516;13.790;2023-03-20T05:17:23;101070.63;;;10.58;100.00
17781;BME280;8498;52.516;13.790;2023-03-20T05:23:18;101074.41;;;10.54;100.00
17781;BME280;8498;52.516;13.790;2023-03-20T05:28:44;101078.41;;;10.47;100.00
17781;BME280;8498;52.516;13.790;2023-03-20T05:34:26;101080.66;;;10.39;100.00
17781;BME280;8498;52.516;13.790;2023-03-20T05:39:59;101089.59;;;10.38;100.00
17781;BME280;8498;52.516;13.790;2023-03-20T05:45:34;101083.69;;;10.33;100.00
17781;BME280;8498;52.516;13.790;2023-03-20T05:51:22;101089.69;;;10.37;100.00
17781;BME280;8498;52.516;13.790;2023-03-20T05:56:57;101083.97;;;10.43;100.00
17781;BME280;8498;52.516;13.790;2023-03-20T06:02:37;101078.50;;;10.46;100.00
17781;BME280;8498;52.516;13.790;2023-03-20T06:08:20;101081.06;;;10.47;100.00
17781;BME280;8498;52.516;13.790;2023-03-20T06:13:42;101083.59;;;10.49;100.00
17781;BME280;8498;52.516;13.790;2023-03-20T06:19:06;101081.78;;;10.49;100.00
17781;BME280;8498;52.516;13.790;2023-03-20T06:24:29;101093.00;;;10.54;100.00
17781;BME280;8498;52.516;13.790;2023-03-20T06:29:52;101090.25;;;10.70;100.00
17781;BME280;8498;52.516;13.790;2023-03-20T06:35:22;101093.75;;;10.85;100.00
17781;BME280;8498;52.516;13.790;2023-03-20T06:40:45;101089.38;;;10.98;100.00
17781;BME280;8498;52.516;13.790;2023-03-20T06:46:11;101106.16;;;11.13;100.00
17781;BME280;8498;52.516;13.790;2023-03-20T06:51:34;101123.44;;;11.20;100.00
17781;BME280;8498;52.516;13.790;2023-03-20T06:56:59;101130.06;;;11.27;100.00
17781;BME280;8498;52.516;13.790;2023-03-20T07:02:22;101123.97;;;11.39;100.00
17781;BME280;8498;52.516;13.790;2023-03-20T07:07:46;101137.19;;;11.40;100.00
17781;BME280;8498;52.516;13.790;2023-03-20T07:13:08;101135.53;;;11.52;100.00
17781;BME280;8498;52.516;13.790;2023-03-20T07:18:34;101139.66;;;11.29;100.00
17781;BME280;8498;52.516;13.790;2023-03-20T07:23:56;101146.19;;;11.52;100.00
17781;BME280;8498;52.516;13.790;2023-03-20T07:29:19;101161.31;;;11.37;100.00
17781;BME280;8498;52.516;13.790;2023-03-20T07:34:43;101177.50;;;11.20;100.00
17781;BME280;8498;52.516;13.790;2023-03-20T07:40:05;101173.56;;;11.26;100.00
17781;BME280;8498;52.516;13.790;2023-03-20T07:45:37;101169.13;;;11.12;100.00
17781;BME280;8498;52.516;13.790;2023-03-20T07:50:59;101171.31;;;11.20;100.00
17781;BME280;8498;52.516;13.790;2023-03-20T07:56:22;101176.03;;;11.00;100.00
17781;BME280;8498;52.516;13.790;2023-03-20T08:01:45;101181.19;;;11.03;100.00
17781;BME280;8498;52.516;13.790;2023-03-20T08:07:08;101189.91;;;10.91;100.00
17781;BME280;8498;52.516;13.790;2023-03-20T08:12:30;101187.25;;;10.77;100.00
17781;BME280;8498;52.516;13.790;2023-03-20T08:17:52;101186.31;;;10.92;100.00
17781;BME280;8498;52.516;13.790;2023-03-20T08:23:15;101192.75;;;10.74;100.00
17781;BME280;8498;52.516;13.790;2023-03-20T08:28:41;101202.84;;;10.97;99.59
17781;BME280;8498;52.516;13.790;2023-03-20T08:34:09;101216.97;;;10.84;99.18
17781;BME280;8498;52.516;13.790;2023-03-20T08:39:31;101222.25;;;10.70;100.00
17781;BME280;8498;52.516;13.790;2023-03-20T08:44:54;101233.69;;;10.86;99.78
17781;BME280;8498;52.516;13.790;2023-03-20T08:50:17;101234.03;;;10.65;97.95
17781;BME280;8498;52.516;13.790;2023-03-20T08:55:39;101224.56;;;11.32;95.65
17781;BME280;8498;52.516;13.790;2023-03-20T09:01:07;101223.13;;;11.55;93.89
17781;BME280;8498;52.516;13.790;2023-03-20T09:06:30;101228.53;;;11.54;93.30
17781;BME280;8498;52.516;13.790;2023-03-20T09:11:55;101224.28;;;11.51;93.19
17781;BME280;8498;52.516;13.790;2023-03-20T09:17:18;101217.88;;;11.68;92.29
17781;BME280;8498;52.516;13.790;2023-03-20T09:22:40;101217.63;;;11.99;91.11
17781;BME280;8498;52.516;13.790;2023-03-20T09:28:04;101211.31;;;12.67;88.88
17781;BME280;8498;52.516;13.790;2023-03-20T09:33:27;101223.28;;;12.99;85.59
17781;BME280;8498;52.516;13.790;2023-03-20T09:38:50;101229.22;;;12.77;83.85
17781;BME280;8498;52.516;13.790;2023-03-20T09:55:24;101226.63;;;13.15;78.04
17781;BME280;8498;52.516;13.790;2023-03-20T10:00:51;101230.16;;;13.29;78.02
17781;BME280;8498;52.516;13.790;2023-03-20T10:06:16;101224.81;;;13.29;77.30
17781;BME280;8498;52.516;13.790;2023-03-20T10:23:07;101222.84;;;13.56;74.27
17781;BME280;8498;52.516;13.790;2023-03-20T10:34:43;101214.69;;;13.70;72.88
17781;BME280;8498;52.516;13.790;2023-03-20T10:40:16;101217.47;;;13.69;72.01
17781;BME280;8498;52.516;13.790;2023-03-20T10:51:17;101206.31;;;13.38;73.08
17781;BME280;8498;52.516;13.790;2023-03-20T10:56:46;101214.06;;;13.54;72.89
17781;BME280;8498;52.516;13.790;2023-03-20T11:02:11;101207.47;;;13.47;73.28
17781;BME280;8498;52.516;13.790;2023-03-20T11:07:36;101213.22;;;13.53;73.21
17781;BME280;8498;52.516;13.790;2023-03-20T11:13:11;101198.91;;;13.54;72.21
17781;BME280;8498;52.516;13.790;2023-03-20T11:18:36;101208.22;;;13.49;71.26
17781;BME280;8498;52.516;13.790;2023-03-20T11:24:00;101205.13;;;13.42;70.94
17781;BME280;8498;52.516;13.790;2023-03-20T11:29:29;101201.09;;;13.37;71.37
17781;BME280;8498;52.516;13.790;2023-03-20T11:34:57;101211.84;;;13.48;71.55
17781;BME280;8498;52.516;13.790;2023-03-20T11:40:31;101213.47;;;13.38;71.33
17781;BME280;8498;52.516;13.790;2023-03-20T11:45:59;101206.00;;;13.30;70.58
17781;BME280;8498;52.516;13.790;2023-03-20T11:51:22;101205.50;;;13.62;69.98
17781;BME280;8498;52.516;13.790;2023-03-20T11:56:51;101188.34;;;13.89;69.13
17781;BME280;8498;52.516;13.790;2023-03-20T12:02:20;101182.19;;;13.76;68.09
17781;BME280;8498;52.516;13.790;2023-03-20T12:07:47;101179.25;;;13.55;69.47
17781;BME280;8498;52.516;13.790;2023-03-20T12:13:16;101177.16;;;13.48;69.54
17781;BME280;8498;52.516;13.790;2023-03-20T12:18:50;101170.19;;;13.58;69.73
17781;BME280;8498;52.516;13.790;2023-03-20T12:24:35;101166.19;;;13.64;68.27
17781;BME280;8498;52.516;13.790;2023-03-20T12:35:31;101158.09;;;13.65;68.35
17781;BME280;8498;52.516;13.790;2023-03-20T12:58:33;101142.88;;;13.78;67.83
17781;BME280;8498;52.516;13.790;2023-03-20T13:21:23;101131.53;;;13.51;67.66
17781;BME280;8498;52.516;13.790;2023-03-20T13:32:56;101116.88;;;13.69;66.75
17781;BME280;8498;52.516;13.790;2023-03-20T13:38:29;101113.03;;;13.60;66.57
17781;BME280;8498;52.516;13.790;2023-03-20T13:43:58;101109.66;;;13.58;66.96
17781;BME280;8498;52.516;13.790;2023-03-20T13:49:42;101105.88;;;13.85;66.72
17781;BME280;8498;52.516;13.790;2023-03-20T13:55:38;101104.81;;;13.64;67.15
17781;BME280;8498;52.516;13.790;2023-03-20T14:01:24;101102.28;;;13.73;67.30
17781;BME280;8498;52.516;13.790;2023-03-20T14:06:52;101105.38;;;13.56;67.71
17781;BME280;8498;52.516;13.790;2023-03-20T14:12:15;101107.47;;;13.64;67.73
17781;BME280;8498;52.516;13.790;2023-03-20T14:17:43;101102.28;;;13.73;67.97
17781;BME280;8498;52.516;13.790;2023-03-20T14:23:15;101106.63;;;13.63;68.74
17781;BME280;8498;52.516;13.790;2023-03-20T14:28:44;101104.53;;;13.55;68.31
17781;BME280;8498;52.516;13.790;2023-03-20T14:34:15;101103.34;;;13.23;69.42
17781;BME280;8498;52.516;13.790;2023-03-20T14:45:46;101112.09;;;13.12;70.00
17781;BME280;8498;52.516;13.790;2023-03-20T14:56:38;101096.50;;;13.32;70.24
17781;BME280;8498;52.516;13.790;2023-03-20T15:02:01;101108.03;;;13.19;70.68
17781;BME280;8498;52.516;13.790;2023-03-20T15:07:30;101092.03;;;13.19;70.71
17781;BME280;8498;52.516;13.790;2023-03-20T15:12:56;101092.06;;;13.07;70.99
17781;BME280;8498;52.516;13.790;2023-03-20T15:18:24;101084.09;;;13.31;70.41
17781;BME280;8498;52.516;13.790;2023-03-20T15:23:47;101076.63;;;13.36;70.62
17781;BME280;8498;52.516;13.790;2023-03-20T15:29:13;101080.72;;;13.29;71.00
17781;BME280;8498;52.516;13.790;2023-03-20T15:34:38;101083.06;;;13.20;71.66
17781;BME280;8498;52.516;13.790;2023-03-20T15:40:10;101074.47;;;13.04;71.98
17781;BME280;8498;52.516;13.790;2023-03-20T15:45:34;101083.88;;;12.97;72.69
17781;BME280;8498;52.516;13.790;2023-03-20T15:51:02;101073.22;;;12.97;73.01
17781;BME280;8498;52.516;13.790;2023-03-20T15:56:27;101068.09;;;12.94;72.96
17781;BME280;8498;52.516;13.790;2023-03-20T16:01:53;101074.16;;;12.96;73.03
17781;BME280;8498;52.516;13.790;2023-03-20T16:07:22;101081.41;;;12.94;73.47
17781;BME280;8498;52.516;13.790;2023-03-20T16:12:49;101085.25;;;12.90;73.32
17781;BME280;8498;52.516;13.790;2023-03-20T16:18:14;101090.81;;;12.87;73.51
17781;BME280;8498;52.516;13.790;2023-03-20T16:23:40;101078.75;;;12.94;73.37
17781;BME280;8498;52.516;13.790;2023-03-20T16:29:03;101082.16;;;12.96;73.42
17781;BME280;8498;52.516;13.790;2023-03-20T16:34:34;101081.72;;;12.90;73.50
17781;BME280;8498;52.516;13.790;2023-03-20T16:40:27;101095.22;;;12.75;74.22
17781;BME280;8498;52.516;13.790;2023-03-20T16:45:54;101093.16;;;12.79;73.92
17781;BME280;8498;52.516;13.790;2023-03-20T16:51:23;101096.56;;;12.68;74.50
17781;BME280;8498;52.516;13.790;2023-03-20T16:56:51;101098.41;;;12.55;75.13
17781;BME280;8498;52.516;13.790;2023-03-20T17:02:28;101096.28;;;12.60;75.02
17781;BME280;8498;52.516;13.790;2023-03-20T17:07:56;101096.16;;;12.62;75.11
17781;BME280;8498;52.516;13.790;2023-03-20T17:13:24;101102.91;;;12.55;75.41
17781;BME280;8498;52.516;13.790;2023-03-20T17:18:58;101105.47;;;12.56;75.20
17781;BME280;8498;52.516;13.790;2023-03-20T17:24:20;101113.66;;;12.53;75.32
17781;BME280;8498;52.516;13.790;2023-03-20T17:29:43;101123.00;;;12.46;75.56
17781;BME280;8498;52.516;13.790;2023-03-20T17:35:07;101117.56;;;12.47;75.26
17781;BME280;8498;52.516;13.790;2023-03-20T17:40:29;101127.72;;;12.42;75.52
17781;BME280;8498;52.516;13.790;2023-03-20T17:45:52;101115.22;;;12.30;75.65
17781;BME280;8498;52.516;13.790;2023-03-20T17:51:15;101115.22;;;12.30;75.73
17781;BME280;8498;52.516;13.790;2023-03-20T17:56:37;101124.50;;;12.25;75.83
17781;BME280;8498;52.516;13.790;2023-03-20T18:02:03;101125.56;;;12.22;75.86
17781;BME280;8498;52.516;13.790;2023-03-20T18:07:25;101130.22;;;12.19;76.03
17781;BME280;8498;52.516;13.790;2023-03-20T18:12:48;101130.03;;;12.22;75.98
17781;BME280;8498;52.516;13.790;2023-03-20T18:18:10;101115.53;;;12.13;76.62
17781;BME280;8498;52.516;13.790;2023-03-20T18:23:33;101118.06;;;12.02;77.26
17781;BME280;8498;52.516;13.790;2023-03-20T18:28:55;101115.50;;;12.00;77.29
17781;BME280;8498;52.516;13.790;2023-03-20T18:34:18;101110.38;;;11.97;77.22
17781;BME280;8498;52.516;13.790;2023-03-20T18:39:40;101112.50;;;11.92;77.21
17781;BME280;8498;52.516;13.790;2023-03-20T18:45:03;101121.34;;;11.93;76.94
17781;BME280;8498;52.516;13.790;2023-03-20T18:50:44;101124.41;;;11.87;77.61
17781;BME280;8498;52.516;13.790;2023-03-20T18:56:12;101128.63;;;11.76;78.50
17781;BME280;8498;52.516;13.790;2023-03-20T19:01:36;101118.94;;;11.75;78.50
17781;BME280;8498;52.516;13.790;2023-03-20T19:06:58;101127.19;;;11.71;78.75
17781;BME280;8498;52.516;13.790;2023-03-20T19:12:21;101129.38;;;11.64;79.61
17781;BME280;8498;52.516;13.790;2023-03-20T19:17:43;101134.72;;;11.64;78.87
17781;BME280;8498;52.516;13.790;2023-03-20T19:23:10;101128.66;;;11.62;79.06
17781;BME280;8498;52.516;13.790;2023-03-20T19:28:33;101124.78;;;11.54;79.32
17781;BME280;8498;52.516;13.790;2023-03-20T19:34:01;101125.94;;;11.50;79.33
17781;BME280;8498;52.516;13.790;2023-03-20T19:39:24;101124.91;;;11.52;79.34
17781;BME280;8498;52.516;13.790;2023-03-20T19:44:47;101134.69;;;11.52;79.27
17781;BME280;8498;52.516;13.790;2023-03-20T19:50:23;101129.38;;;11.52;79.04
17781;BME280;8498;52.516;13.790;2023-03-20T19:55:47;101135.91;;;11.46;79.03
17781;BME280;8498;52.516;13.790;2023-03-20T20:01:17;101128.69;;;11.48;78.75
17781;BME280;8498;52.516;13.790;2023-03-20T20:06:41;101127.94;;;11.46;78.83
17781;BME280;8498;52.516;13.790;2023-03-20T20:12:04;101135.72;;;11.49;77.87
17781;BME280;8498;52.516;13.790;2023-03-20T20:17:26;101130.50;;;11.48;77.75
17781;BME280;8498;52.516;13.790;2023-03-20T20:22:49;101134.19;;;11.45;76.71
17781;BME280;8498;52.516;13.790;2023-03-20T20:28:13;101119.44;;;11.54;75.92
17781;BME280;8498;52.516;13.790;2023-03-20T20:33:38;101138.19;;;11.52;75.04
17781;BME280;8498;52.516;13.790;2023-03-20T20:39:01;101133.25;;;11.46;74.58
17781;BME280;8498;52.516;13.790;2023-03-20T20:44:23;101135.63;;;11.51;74.20
17781;BME280;8498;52.516;13.790;2023-03-20T20:49:45;101132.50;;;11.44;74.23
17781;BME280;8498;52.516;13.790;2023-03-20T20:55:11;101136.00;;;11.45;74.15
17781;BME280;8498;52.516;13.790;2023-03-20T21:00:44;101130.25;;;11.38;74.62
17781;BME280;8498;52.516;13.790;2023-03-20T21:06:15;101139.16;;;11.37;75.07
17781;BME280;8498;52.516;13.790;2023-03-20T21:11:38;101134.44;;;11.28;74.91
17781;BME280;8498;52.516;13.790;2023-03-20T21:17:01;101123.31;;;11.35;74.60
17781;BME280;8498;52.516;13.790;2023-03-20T21:22:24;101121.91;;;11.30;74.68
17781;BME280;8498;52.516;13.790;2023-03-20T21:27:46;101121.34;;;11.25;75.62
17781;BME280;8498;52.516;13.790;2023-03-20T21:33:09;101112.63;;;11.09;76.56
17781;BME280;8498;52.516;13.790;2023-03-20T21:38:32;101119.47;;;10.98;76.89
17781;BME280;8498;52.516;13.790;2023-03-20T21:44:15;101121.94;;;11.01;76.67
17781;BME280;8498;52.516;13.790;2023-03-20T21:49:58;101130.31;;;10.95;76.29
17781;BME280;8498;52.516;13.790;2023-03-20T21:55:41;101131.63;;;11.02;76.42
17781;BME280;8498;52.516;13.790;2023-03-20T22:01:23;101146.16;;;10.97;75.80
17781;BME280;8498;52.516;13.790;2023-03-20T22:07:06;101142.25;;;11.02;76.19
17781;BME280;8498;52.516;13.790;2023-03-20T22:12:48;101143.97;;;11.03;75.79
17781;BME280;8498;52.516;13.790;2023-03-20T22:18:31;101136.75;;;11.06;76.11
17781;BME280;8498;52.516;13.790;2023-03-20T22:24:13;101136.38;;;10.97;76.08
17781;BME280;8498;52.516;13.790;2023-03-20T22:29:56;101128.41;;;10.97;76.30
17781;BME280;8498;52.516;13.790;2023-03-20T22:35:42;101127.63;;;10.95;76.73
17781;BME280;8498;52.516;13.790;2023-03-20T22:41:27;101131.66;;;10.88;77.34
17781;BME280;8498;52.516;13.790;2023-03-20T22:47:10;101132.41;;;10.76;77.90
17781;BME280;8498;52.516;13.790;2023-03-20T22:52:32;101125.00;;;10.67;78.63
17781;BME280;8498;52.516;13.790;2023-03-20T22:58:11;101132.75;;;10.56;79.48
17781;BME280;8498;52.516;13.790;2023-03-20T23:03:34;101137.31;;;10.54;79.80
17781;BME280;8498;52.516;13.790;2023-03-20T23:09:03;101133.06;;;10.65;79.63
17781;BME280;8498;52.516;13.790;2023-03-20T23:14:36;101135.63;;;10.67;79.34
17781;BME280;8498;52.516;13.790;2023-03-20T23:20:07;101134.69;;;10.68;78.67
17781;BME280;8498;52.516;13.790;2023-03-20T23:25:35;101142.25;;;10.74;78.13
17781;BME280;8498;52.516;13.790;2023-03-20T23:31:12;101138.66;;;10.75;77.63
17781;BME280;8498;52.516;13.790;2023-03-20T23:36:39;101137.13;;;10.71;76.94
17781;BME280;8498;52.516;13.790;2023-03-20T23:42:01;101141.31;;;10.75;77.14
17781;BME280;8498;52.516;13.790;2023-03-20T23:47:38;101140.53;;;10.73;77.10
17781;BME280;8498;52.516;13.790;2023-03-20T23:53:06;101137.69;;;10.62;76.50
17781;BME280;8498;52.516;13.790;2023-03-20T23:58:43;101137.34;;;10.68;76.40
